sensor_id;sensor_type;location;lat;lon;timestamp;P1;durP1;ratioP1;P2;durP2;ratioP2
13799;SDS011;6971;50.028;9.258;2022-10-19T00:01:42;16.97;;;5.50;;
13799;SDS011;6971;50.028;9.258;2022-10-19T00:06:43;7.93;;;4.77;;
13799;SDS011;6971;50.028;9.258;2022-10-19T00:11:45;9.77;;;4.10;;
13799;SDS011;6971;50.028;9.258;2022-10-19T00:16:50;13.67;;;4.63;;
13799;SDS011;6971;50.028;9.258;2022-10-19T00:21:52;6.00;;;4.07;;
13799;SDS011;6971;50.028;9.258;2022-10-19T00:26:53;8.13;;;3.67;;
13799;SDS011;6971;50.028;9.258;2022-10-19T00:31:54;11.33;;;4.20;;
13799;SDS011;6971;50.028;9.258;2022-10-19T00:36:54;7.80;;;3.87;;
13799;SDS011;6971;50.028;9.258;2022-10-19T00:41:56;9.20;;;3.40;;
13799;SDS011;6971;50.028;9.258;2022-10-19T00:46:58;6.17;;;3.47;;
13799;SDS011;6971;50.028;9.258;2022-10-19T00:52:14;15.10;;;3.60;;
13799;SDS011;6971;50.028;9.258;2022-10-19T00:57:17;12.17;;;3.50;;
13799;SDS011;6971;50.028;9.258;2022-10-19T01:02:19;13.03;;;3.40;;
13799;SDS011;6971;50.028;9.258;2022-10-19T01:07:20;5.70;;;3.30;;
13799;SDS011;6971;50.028;9.258;2022-10-19T01:12:34;17.27;;;3.37;;
13799;SDS011;6971;50.028;9.258;2022-10-19T01:39:11;10.33;;;4.17;;
13799;SDS011;6971;50.028;9.258;2022-10-19T01:45:02;11.57;;;3.93;;
13799;SDS011;6971;50.028;9.258;2022-10-19T01:50:04;8.60;;;4.17;;
13799;SDS011;6971;50.028;9.258;2022-10-19T01:55:10;12.47;;;4.30;;
13799;SDS011;6971;50.028;9.258;2022-10-19T02:00:15;8.33;;;3.77;;
13799;SDS011;6971;50.028;9.258;2022-10-19T02:05:17;8.37;;;4.10;;
13799;SDS011;6971;50.028;9.258;2022-10-19T02:10:21;13.33;;;3.80;;
13799;SDS011;6971;50.028;9.258;2022-10-19T02:15:25;14.80;;;4.13;;
13799;SDS011;6971;50.028;9.258;2022-10-19T02:20:30;21.33;;;4.40;;
13799;SDS011;6971;50.028;9.258;2022-10-19T02:25:31;17.90;;;5.00;;
13799;SDS011;6971;50.028;9.258;2022-10-19T02:30:32;10.53;;;5.10;;
13799;SDS011;6971;50.028;9.258;2022-10-19T02:35:33;15.67;;;6.27;;
13799;SDS011;6971;50.028;9.258;2022-10-19T02:40:35;18.93;;;6.07;;
13799;SDS011;6971;50.028;9.258;2022-10-19T02:45:47;10.60;;;4.93;;
13799;SDS011;6971;50.028;9.258;2022-10-19T02:50:51;22.50;;;5.67;;
13799;SDS011;6971;50.028;9.258;2022-10-19T02:55:52;19.27;;;6.47;;
13799;SDS011;6971;50.028;9.258;2022-10-19T03:00:52;13.37;;;5.97;;
13799;SDS011;6971;50.028;9.258;2022-10-19T03:05:54;16.37;;;7.63;;
13799;SDS011;6971;50.028;9.258;2022-10-19T03:10:57;17.33;;;8.10;;
13799;SDS011;6971;50.028;9.258;2022-10-19T03:16:05;20.90;;;8.03;;
13799;SDS011;6971;50.028;9.258;2022-10-19T03:21:11;22.73;;;8.20;;
13799;SDS011;6971;50.028;9.258;2022-10-19T03:26:14;13.63;;;7.60;;
13799;SDS011;6971;50.028;9.258;2022-10-19T03:31:15;15.00;;;7.73;;
13799;SDS011;6971;50.028;9.258;2022-10-19T03:41:18;22.63;;;7.90;;
13799;SDS011;6971;50.028;9.258;2022-10-19T03:46:23;20.57;;;8.10;;
13799;SDS011;6971;50.028;9.258;2022-10-19T03:51:25;22.53;;;9.10;;
13799;SDS011;6971;50.028;9.258;2022-10-19T03:56:28;15.90;;;9.17;;
13799;SDS011;6971;50.028;9.258;2022-10-19T04:01:40;18.87;;;9.60;;
13799;SDS011;6971;50.028;9.258;2022-10-19T04:06:43;24.07;;;8.83;;
13799;SDS011;6971;50.028;9.258;2022-10-19T04:11:45;18.77;;;8.83;;
13799;SDS011;6971;50.028;9.258;2022-10-19T04:16:47;15.43;;;8.73;;
13799;SDS011;6971;50.028;9.258;2022-10-19T04:21:47;25.07;;;9.80;;
13799;SDS011;6971;50.028;9.258;2022-10-19T04:26:49;27.80;;;13.63;;
13799;SDS011;6971;50.028;9.258;2022-10-19T04:31:52;17.73;;;10.00;;
13799;SDS011;6971;50.028;9.258;2022-10-19T04:36:52;24.27;;;10.53;;
13799;SDS011;6971;50.028;9.258;2022-10-19T04:41:53;25.33;;;11.10;;
13799;SDS011;6971;50.028;9.258;2022-10-19T04:46:54;20.90;;;10.47;;
13799;SDS011;6971;50.028;9.258;2022-10-19T04:51:54;20.37;;;10.20;;
13799;SDS011;6971;50.028;9.258;2022-10-19T04:56:56;21.27;;;10.57;;
13799;SDS011;6971;50.028;9.258;2022-10-19T05:01:57;33.10;;;12.00;;
13799;SDS011;6971;50.028;9.258;2022-10-19T05:07:01;31.87;;;12.77;;
13799;SDS011;6971;50.028;9.258;2022-10-19T05:12:02;27.77;;;15.00;;
13799;SDS011;6971;50.028;9.258;2022-10-19T05:17:03;36.03;;;21.17;;
13799;SDS011;6971;50.028;9.258;2022-10-19T05:22:04;19.90;;;10.10;;
13799;SDS011;6971;50.028;9.258;2022-10-19T05:27:04;27.83;;;10.80;;
13799;SDS011;6971;50.028;9.258;2022-10-19T05:32:05;22.60;;;9.97;;
13799;SDS011;6971;50.028;9.258;2022-10-19T05:37:06;20.07;;;9.70;;
13799;SDS011;6971;50.028;9.258;2022-10-19T05:42:07;21.00;;;10.47;;
13799;SDS011;6971;50.028;9.258;2022-10-19T05:47:08;30.10;;;16.07;;
13799;SDS011;6971;50.028;9.258;2022-10-19T05:52:08;26.57;;;10.53;;
13799;SDS011;6971;50.028;9.258;2022-10-19T05:57:09;18.83;;;9.60;;
13799;SDS011;6971;50.028;9.258;2022-10-19T06:02:13;18.20;;;9.33;;
13799;SDS011;6971;50.028;9.258;2022-10-19T06:07:14;21.10;;;9.50;;
13799;SDS011;6971;50.028;9.258;2022-10-19T06:12:17;24.40;;;10.20;;
13799;SDS011;6971;50.028;9.258;2022-10-19T06:17:19;25.70;;;10.20;;
13799;SDS011;6971;50.028;9.258;2022-10-19T06:22:20;21.27;;;9.40;;
13799;SDS011;6971;50.028;9.258;2022-10-19T06:27:21;21.13;;;10.60;;
13799;SDS011;6971;50.028;9.258;2022-10-19T06:32:22;19.37;;;9.10;;
13799;SDS011;6971;50.028;9.258;2022-10-19T06:37:25;16.90;;;9.67;;
13799;SDS011;6971;50.028;9.258;2022-10-19T06:42:26;18.17;;;10.40;;
13799;SDS011;6971;50.028;9.258;2022-10-19T06:47:27;20.73;;;9.33;;
13799;SDS011;6971;50.028;9.258;2022-10-19T06:52:33;20.47;;;10.60;;
13799;SDS011;6971;50.028;9.258;2022-10-19T06:57:34;29.37;;;15.33;;
13799;SDS011;6971;50.028;9.258;2022-10-19T07:02:35;31.73;;;22.43;;
13799;SDS011;6971;50.028;9.258;2022-10-19T07:07:36;24.97;;;13.23;;
13799;SDS011;6971;50.028;9.258;2022-10-19T07:12:37;20.67;;;11.60;;
13799;SDS011;6971;50.028;9.258;2022-10-19T07:17:38;31.73;;;25.37;;
13799;SDS011;6971;50.028;9.258;2022-10-19T07:22:38;37.17;;;21.33;;
13799;SDS011;6971;50.028;9.258;2022-10-19T07:27:39;28.77;;;18.47;;
13799;SDS011;6971;50.028;9.258;2022-10-19T07:32:40;20.77;;;13.83;;
13799;SDS011;6971;50.028;9.258;2022-10-19T07:37:41;27.80;;;16.37;;
13799;SDS011;6971;50.028;9.258;2022-10-19T07:42:41;45.77;;;38.13;;
13799;SDS011;6971;50.028;9.258;2022-10-19T07:47:42;28.23;;;18.77;;
13799;SDS011;6971;50.028;9.258;2022-10-19T07:52:43;54.37;;;34.20;;
13799;SDS011;6971;50.028;9.258;2022-10-19T07:57:47;26.47;;;16.43;;
13799;SDS011;6971;50.028;9.258;2022-10-19T08:02:48;25.97;;;16.53;;
13799;SDS011;6971;50.028;9.258;2022-10-19T08:07:49;18.30;;;12.73;;
13799;SDS011;6971;50.028;9.258;2022-10-19T08:12:50;23.73;;;15.17;;
13799;SDS011;6971;50.028;9.258;2022-10-19T08:17:51;16.63;;;11.47;;
13799;SDS011;6971;50.028;9.258;2022-10-19T08:22:51;15.90;;;11.03;;
13799;SDS011;6971;50.028;9.258;2022-10-19T08:27:52;19.37;;;11.90;;
13799;SDS011;6971;50.028;9.258;2022-10-19T08:32:52;17.50;;;10.53;;
13799;SDS011;6971;50.028;9.258;2022-10-19T08:37:53;16.30;;;10.57;;
13799;SDS011;6971;50.028;9.258;2022-10-19T08:43:01;17.10;;;12.10;;
13799;SDS011;6971;50.028;9.258;2022-10-19T08:58:46;13.57;;;10.17;;
13799;SDS011;6971;50.028;9.258;2022-10-19T09:04:13;15.60;;;10.67;;
13799;SDS011;6971;50.028;9.258;2022-10-19T09:09:37;11.67;;;8.60;;
13799;SDS011;6971;50.028;9.258;2022-10-19T09:14:46;11.43;;;8.63;;
13799;SDS011;6971;50.028;9.258;2022-10-19T09:19:59;12.17;;;9.03;;
13799;SDS011;6971;50.028;9.258;2022-10-19T09:30:24;8.10;;;7.10;;
13799;SDS011;6971;50.028;9.258;2022-10-19T09:35:35;15.37;;;7.73;;
13799;SDS011;6971;50.028;9.258;2022-10-19T09:40:38;11.63;;;7.43;;
13799;SDS011;6971;50.028;9.258;2022-10-19T09:45:41;10.97;;;7.23;;
13799;SDS011;6971;50.028;9.258;2022-10-19T09:50:50;11.50;;;7.33;;
13799;SDS011;6971;50.028;9.258;2022-10-19T09:56:05;10.93;;;7.47;;
13799;SDS011;6971;50.028;9.258;2022-10-19T10:01:08;11.70;;;7.70;;
13799;SDS011;6971;50.028;9.258;2022-10-19T10:06:30;10.93;;;7.40;;
13799;SDS011;6971;50.028;9.258;2022-10-19T10:11:32;13.03;;;8.27;;
13799;SDS011;6971;50.028;9.258;2022-10-19T10:16:35;11.07;;;7.10;;
13799;SDS011;6971;50.028;9.258;2022-10-19T10:21:47;9.47;;;7.03;;
13799;SDS011;6971;50.028;9.258;2022-10-19T10:26:57;14.10;;;9.83;;
13799;SDS011;6971;50.028;9.258;2022-10-19T10:37:07;9.67;;;6.67;;
13799;SDS011;6971;50.028;9.258;2022-10-19T10:42:29;13.07;;;7.33;;
13799;SDS011;6971;50.028;9.258;2022-10-19T10:47:36;9.97;;;6.50;;
13799;SDS011;6971;50.028;9.258;2022-10-19T10:52:38;11.43;;;7.33;;
13799;SDS011;6971;50.028;9.258;2022-10-19T10:57:40;9.53;;;6.73;;
13799;SDS011;6971;50.028;9.258;2022-10-19T11:08:03;8.93;;;5.43;;
13799;SDS011;6971;50.028;9.258;2022-10-19T11:13:19;8.47;;;5.70;;
13799;SDS011;6971;50.028;9.258;2022-10-19T11:23:59;11.13;;;5.60;;
13799;SDS011;6971;50.028;9.258;2022-10-19T11:40:09;11.90;;;7.30;;
13799;SDS011;6971;50.028;9.258;2022-10-19T11:45:20;10.07;;;5.27;;
13799;SDS011;6971;50.028;9.258;2022-10-19T11:55:52;9.53;;;5.37;;
13799;SDS011;6971;50.028;9.258;2022-10-19T12:06:47;6.17;;;4.27;;
13799;SDS011;6971;50.028;9.258;2022-10-19T12:17:24;9.10;;;5.83;;
13799;SDS011;6971;50.028;9.258;2022-10-19T12:22:29;5.37;;;4.73;;
13799;SDS011;6971;50.028;9.258;2022-10-19T12:27:32;7.53;;;4.60;;
13799;SDS011;6971;50.028;9.258;2022-10-19T12:32:43;6.30;;;5.10;;
13799;SDS011;6971;50.028;9.258;2022-10-19T12:53:10;10.30;;;7.77;;
13799;SDS011;6971;50.028;9.258;2022-10-19T12:58:38;7.97;;;5.90;;
13799;SDS011;6971;50.028;9.258;2022-10-19T13:03:50;11.60;;;7.10;;
13799;SDS011;6971;50.028;9.258;2022-10-19T13:09:05;9.83;;;7.07;;
13799;SDS011;6971;50.028;9.258;2022-10-19T13:19:47;7.10;;;5.67;;
13799;SDS011;6971;50.028;9.258;2022-10-19T13:35:46;8.37;;;6.93;;
13799;SDS011;6971;50.028;9.258;2022-10-19T13:51:14;9.70;;;7.10;;
13799;SDS011;6971;50.028;9.258;2022-10-19T13:56:28;11.57;;;7.27;;
13799;SDS011;6971;50.028;9.258;2022-10-19T14:01:42;9.27;;;8.20;;
13799;SDS011;6971;50.028;9.258;2022-10-19T14:06:54;10.53;;;7.53;;
13799;SDS011;6971;50.028;9.258;2022-10-19T14:12:07;12.23;;;8.03;;
13799;SDS011;6971;50.028;9.258;2022-10-19T14:17:22;10.00;;;8.47;;
13799;SDS011;6971;50.028;9.258;2022-10-19T14:22:31;14.43;;;11.03;;
13799;SDS011;6971;50.028;9.258;2022-10-19T14:27:33;11.63;;;9.20;;
13799;SDS011;6971;50.028;9.258;2022-10-19T14:32:35;12.43;;;10.53;;
13799;SDS011;6971;50.028;9.258;2022-10-19T14:37:35;11.60;;;10.40;;
13799;SDS011;6971;50.028;9.258;2022-10-19T14:42:38;13.57;;;11.70;;
13799;SDS011;6971;50.028;9.258;2022-10-19T14:47:51;14.20;;;10.77;;
13799;SDS011;6971;50.028;9.258;2022-10-19T14:53:05;10.87;;;9.77;;
13799;SDS011;6971;50.028;9.258;2022-10-19T14:58:18;12.40;;;8.93;;
13799;SDS011;6971;50.028;9.258;2022-10-19T15:03:25;12.13;;;9.80;;
13799;SDS011;6971;50.028;9.258;2022-10-19T15:08:34;14.87;;;9.67;;
13799;SDS011;6971;50.028;9.258;2022-10-19T15:13:42;11.10;;;8.93;;
13799;SDS011;6971;50.028;9.258;2022-10-19T15:18:43;12.97;;;8.60;;
13799;SDS011;6971;50.028;9.258;2022-10-19T15:23:47;11.03;;;9.47;;
13799;SDS011;6971;50.028;9.258;2022-10-19T15:28:50;10.80;;;9.40;;
13799;SDS011;6971;50.028;9.258;2022-10-19T15:33:55;10.70;;;9.17;;
13799;SDS011;6971;50.028;9.258;2022-10-19T15:39:03;11.80;;;9.67;;
13799;SDS011;6971;50.028;9.258;2022-10-19T15:44:28;16.83;;;10.23;;
13799;SDS011;6971;50.028;9.258;2022-10-19T15:55:01;13.13;;;11.57;;
13799;SDS011;6971;50.028;9.258;2022-10-19T16:00:15;12.27;;;9.73;;
13799;SDS011;6971;50.028;9.258;2022-10-19T16:05:17;10.37;;;8.53;;
13799;SDS011;6971;50.028;9.258;2022-10-19T16:10:19;9.30;;;8.33;;
13799;SDS011;6971;50.028;9.258;2022-10-19T16:15:22;15.37;;;9.50;;
13799;SDS011;6971;50.028;9.258;2022-10-19T16:20:23;12.30;;;10.77;;
13799;SDS011;6971;50.028;9.258;2022-10-19T16:25:26;11.50;;;8.50;;
13799;SDS011;6971;50.028;9.258;2022-10-19T16:30:27;14.07;;;9.30;;
13799;SDS011;6971;50.028;9.258;2022-10-19T16:35:28;9.77;;;8.77;;
13799;SDS011;6971;50.028;9.258;2022-10-19T16:40:29;14.77;;;10.67;;
13799;SDS011;6971;50.028;9.258;2022-10-19T16:45:30;11.83;;;8.67;;
13799;SDS011;6971;50.028;9.258;2022-10-19T16:50:31;16.17;;;9.37;;
13799;SDS011;6971;50.028;9.258;2022-10-19T16:55:34;9.77;;;8.03;;
13799;SDS011;6971;50.028;9.258;2022-10-19T17:00:37;16.00;;;9.10;;
13799;SDS011;6971;50.028;9.258;2022-10-19T17:05:39;9.93;;;7.90;;
13799;SDS011;6971;50.028;9.258;2022-10-19T17:10:39;14.93;;;7.90;;
13799;SDS011;6971;50.028;9.258;2022-10-19T17:15:40;12.43;;;7.73;;
13799;SDS011;6971;50.028;9.258;2022-10-19T17:20:41;13.00;;;8.20;;
13799;SDS011;6971;50.028;9.258;2022-10-19T17:25:46;10.20;;;8.27;;
13799;SDS011;6971;50.028;9.258;2022-10-19T17:30:47;10.77;;;7.87;;
13799;SDS011;6971;50.028;9.258;2022-10-19T17:35:49;11.10;;;7.90;;
13799;SDS011;6971;50.028;9.258;2022-10-19T17:40:51;10.60;;;8.03;;
13799;SDS011;6971;50.028;9.258;2022-10-19T17:46:01;14.57;;;8.93;;
13799;SDS011;6971;50.028;9.258;2022-10-19T17:51:06;19.13;;;13.00;;
13799;SDS011;6971;50.028;9.258;2022-10-19T17:56:11;14.57;;;11.50;;
13799;SDS011;6971;50.028;9.258;2022-10-19T18:01:14;15.97;;;11.53;;
13799;SDS011;6971;50.028;9.258;2022-10-19T18:06:18;17.03;;;9.07;;
13799;SDS011;6971;50.028;9.258;2022-10-19T18:11:22;16.40;;;10.13;;
13799;SDS011;6971;50.028;9.258;2022-10-19T18:16:45;15.73;;;9.97;;
13799;SDS011;6971;50.028;9.258;2022-10-19T18:21:48;25.07;;;12.50;;
13799;SDS011;6971;50.028;9.258;2022-10-19T18:26:49;19.20;;;12.10;;
13799;SDS011;6971;50.028;9.258;2022-10-19T18:31:51;18.10;;;12.67;;
13799;SDS011;6971;50.028;9.258;2022-10-19T18:36:57;15.83;;;12.33;;
13799;SDS011;6971;50.028;9.258;2022-10-19T18:41:58;15.27;;;13.67;;
13799;SDS011;6971;50.028;9.258;2022-10-19T18:46:59;19.53;;;13.90;;
13799;SDS011;6971;50.028;9.258;2022-10-19T18:52:00;17.90;;;12.60;;
13799;SDS011;6971;50.028;9.258;2022-10-19T18:57:00;17.97;;;12.07;;
13799;SDS011;6971;50.028;9.258;2022-10-19T19:02:01;17.50;;;11.77;;
13799;SDS011;6971;50.028;9.258;2022-10-19T19:07:02;34.77;;;25.20;;
13799;SDS011;6971;50.028;9.258;2022-10-19T19:12:03;17.00;;;11.47;;
13799;SDS011;6971;50.028;9.258;2022-10-19T19:17:04;11.90;;;8.53;;
13799;SDS011;6971;50.028;9.258;2022-10-19T19:22:04;10.70;;;8.00;;
13799;SDS011;6971;50.028;9.258;2022-10-19T19:27:06;11.03;;;7.93;;
13799;SDS011;6971;50.028;9.258;2022-10-19T19:32:07;14.47;;;10.60;;
13799;SDS011;6971;50.028;9.258;2022-10-19T19:37:09;11.07;;;7.07;;
13799;SDS011;6971;50.028;9.258;2022-10-19T19:42:10;9.17;;;6.87;;
13799;SDS011;6971;50.028;9.258;2022-10-19T19:47:11;14.87;;;8.30;;
13799;SDS011;6971;50.028;9.258;2022-10-19T19:52:11;9.63;;;5.97;;
13799;SDS011;6971;50.028;9.258;2022-10-19T19:57:13;8.83;;;5.83;;
13799;SDS011;6971;50.028;9.258;2022-10-19T20:02:13;10.47;;;5.47;;
13799;SDS011;6971;50.028;9.258;2022-10-19T20:07:15;10.23;;;5.63;;
13799;SDS011;6971;50.028;9.258;2022-10-19T20:12:16;7.60;;;5.27;;
13799;SDS011;6971;50.028;9.258;2022-10-19T20:17:17;13.27;;;5.23;;
13799;SDS011;6971;50.028;9.258;2022-10-19T20:22:22;8.90;;;5.03;;
13799;SDS011;6971;50.028;9.258;2022-10-19T20:27:25;11.27;;;5.50;;
13799;SDS011;6971;50.028;9.258;2022-10-19T20:32:26;9.70;;;5.53;;
13799;SDS011;6971;50.028;9.258;2022-10-19T20:37:28;10.70;;;5.60;;
13799;SDS011;6971;50.028;9.258;2022-10-19T20:42:29;6.97;;;4.97;;
13799;SDS011;6971;50.028;9.258;2022-10-19T20:47:30;8.17;;;4.80;;
13799;SDS011;6971;50.028;9.258;2022-10-19T20:52:32;12.93;;;5.47;;
13799;SDS011;6971;50.028;9.258;2022-10-19T20:57:33;8.23;;;5.10;;
13799;SDS011;6971;50.028;9.258;2022-10-19T21:02:34;7.33;;;5.07;;
13799;SDS011;6971;50.028;9.258;2022-10-19T21:07:34;10.33;;;5.87;;
13799;SDS011;6971;50.028;9.258;2022-10-19T21:12:35;5.43;;;4.93;;
13799;SDS011;6971;50.028;9.258;2022-10-19T21:17:36;7.97;;;6.17;;
13799;SDS011;6971;50.028;9.258;2022-10-19T21:22:36;11.37;;;5.90;;
13799;SDS011;6971;50.028;9.258;2022-10-19T21:27:38;10.77;;;5.80;;
13799;SDS011;6971;50.028;9.258;2022-10-19T21:32:39;7.53;;;5.40;;
13799;SDS011;6971;50.028;9.258;2022-10-19T21:37:39;8.20;;;5.17;;
13799;SDS011;6971;50.028;9.258;2022-10-19T21:42:40;8.93;;;5.30;;
13799;SDS011;6971;50.028;9.258;2022-10-19T21:47:41;9.57;;;5.50;;
13799;SDS011;6971;50.028;9.258;2022-10-19T21:52:41;9.33;;;4.87;;
13799;SDS011;6971;50.028;9.258;2022-10-19T21:57:42;9.00;;;5.40;;
13799;SDS011;6971;50.028;9.258;2022-10-19T22:02:44;10.13;;;5.33;;
13799;SDS011;6971;50.028;9.258;2022-10-19T22:07:47;8.57;;;5.07;;
13799;SDS011;6971;50.028;9.258;2022-10-19T22:12:48;11.33;;;5.80;;
13799;SDS011;6971;50.028;9.258;2022-10-19T22:17:49;6.50;;;4.90;;
13799;SDS011;6971;50.028;9.258;2022-10-19T22:22:49;13.77;;;5.67;;
13799;SDS011;6971;50.028;9.258;2022-10-19T22:27:50;8.90;;;5.50;;
13799;SDS011;6971;50.028;9.258;2022-10-19T22:32:51;12.17;;;5.50;;
13799;SDS011;6971;50.028;9.258;2022-10-19T22:37:51;6.77;;;4.73;;
13799;SDS011;6971;50.028;9.258;2022-10-19T22:42:52;6.07;;;4.97;;
13799;SDS011;6971;50.028;9.258;2022-10-19T22:47:53;8.33;;;5.30;;
13799;SDS011;6971;50.028;9.258;2022-10-19T22:52:53;7.23;;;5.27;;
13799;SDS011;6971;50.028;9.258;2022-10-19T22:57:54;8.20;;;5.07;;
13799;SDS011;6971;50.028;9.258;2022-10-19T23:02:56;9.80;;;6.03;;
13799;SDS011;6971;50.028;9.258;2022-10-19T23:07:57;9.90;;;5.73;;
13799;SDS011;6971;50.028;9.258;2022-10-19T23:12:58;12.07;;;5.50;;
13799;SDS011;6971;50.028;9.258;2022-10-19T23:17:59;6.40;;;5.47;;
13799;SDS011;6971;50.028;9.258;2022-10-19T23:22:59;7.07;;;6.37;;
13799;SDS011;6971;50.028;9.258;2022-10-19T23:28:00;12.13;;;6.10;;
13799;SDS011;6971;50.028;9.258;2022-10-19T23:33:01;8.00;;;5.73;;
13799;SDS011;6971;50.028;9.258;2022-10-19T23:38:02;11.73;;;5.87;;
13799;SDS011;6971;50.028;9.258;2022-10-19T23:43:02;7.40;;;5.53;;
13799;SDS011;6971;50.028;9.258;2022-10-19T23:48:03;12.30;;;6.17;;
13799;SDS011;6971;50.028;9.258;2022-10-19T23:53:04;11.00;;;6.00;;
13799;SDS011;6971;50.028;9.258;2022-10-19T23:58:05;11.47;;;6.30;;
